createdAt,value
2018-09-03T00:02:12.724Z,28.47
2018-09-03T00:04:42.905Z,36.57
2018-09-03T00:07:13.351Z,35.57
2018-09-03T00:09:43.709Z,44.83
2018-09-03T00:12:14.171Z,38.83
2018-09-03T00:14:44.330Z,38.50
2018-09-03T00:17:15.008Z,40.53
2018-09-03T00:19:45.403Z,40.73
2018-09-03T00:22:15.765Z,31.93
2018-09-03T00:24:45.721Z,35.40
2018-09-03T00:27:16.910Z,37.20
2018-09-03T00:29:47.711Z,39.67
2018-09-03T00:32:24.617Z,35.47
2018-09-03T00:34:59.533Z,37.50
2018-09-03T00:37:34.967Z,46.23
2018-09-03T00:40:10.599Z,34.50
2018-09-03T00:42:45.778Z,37.33
2018-09-03T00:45:22.431Z,43.10
2018-09-03T00:47:52.948Z,44.63
2018-09-03T00:50:23.889Z,43.50
2018-09-03T00:52:54.573Z,45.67
2018-09-03T00:55:24.709Z,43.03
2018-09-03T00:57:54.639Z,39.60
2018-09-03T01:00:25.459Z,37.87
2018-09-03T01:02:56.099Z,45.97
2018-09-03T01:05:28.545Z,44.30
2018-09-03T01:07:58.568Z,43.13
2018-09-03T01:10:29.985Z,48.80
2018-09-03T01:13:00.525Z,40.03
2018-09-03T01:15:33.544Z,46.40
2018-09-03T01:18:04.687Z,41.50
2018-09-03T01:20:36.393Z,48.37
2018-09-03T01:23:06.902Z,53.13
2018-09-03T01:25:37.538Z,48.90
2018-09-03T01:28:08.126Z,49.07
2018-09-03T01:30:38.685Z,48.07
2018-09-03T01:33:10.329Z,47.53
2018-09-03T01:35:40.593Z,52.63
2018-09-03T01:38:10.859Z,49.67
2018-09-03T01:40:41.346Z,39.00
2018-09-03T01:43:11.722Z,49.17
2018-09-03T01:45:42.012Z,44.77
2018-09-03T01:48:14.170Z,48.70
2018-09-03T01:50:44.292Z,42.40
2018-09-03T01:53:14.665Z,44.83
2018-09-03T01:55:44.839Z,43.03
2018-09-03T01:58:15.761Z,43.67
2018-09-03T02:00:47.790Z,41.50
2018-09-03T02:03:20.870Z,44.70
2018-09-03T02:05:51.421Z,39.70
2018-09-03T02:08:27.846Z,45.10
2018-09-03T02:10:58.493Z,48.00
2018-09-03T02:13:29.364Z,44.20
2018-09-03T02:15:59.789Z,50.03
2018-09-03T02:18:30.459Z,43.80
2018-09-03T02:21:02.355Z,46.03
2018-09-03T02:23:32.707Z,51.13
2018-09-03T02:26:03.987Z,41.43
2018-09-03T02:28:35.890Z,44.27
2018-09-03T02:31:06.052Z,46.90
2018-09-03T02:33:35.926Z,44.53
2018-09-03T02:36:06.457Z,43.30
2018-09-03T02:38:36.697Z,46.87
2018-09-03T02:41:07.746Z,47.83
2018-09-03T02:43:38.330Z,54.00
2018-09-03T02:46:09.432Z,50.20
2018-09-03T02:48:41.181Z,38.70
2018-09-03T02:51:13.461Z,50.83
2018-09-03T02:53:43.632Z,54.03
2018-09-03T02:56:14.979Z,41.50
2018-09-03T02:58:44.936Z,51.20
2018-09-03T03:01:14.942Z,56.57
2018-09-03T03:03:45.506Z,58.07
2018-09-03T03:06:15.666Z,50.10
2018-09-03T03:08:45.959Z,48.57
2018-09-03T03:11:16.332Z,44.73
2018-09-03T03:13:46.457Z,44.77
2018-09-03T03:16:16.722Z,40.40
2018-09-03T03:18:47.330Z,44.37
2018-09-03T03:21:17.740Z,43.50
2018-09-03T03:23:47.723Z,41.77
2018-09-03T03:26:18.098Z,44.97
2018-09-03T03:28:47.957Z,47.97
2018-09-03T03:31:18.638Z,47.17
2018-09-03T03:33:49.002Z,48.40
2018-09-03T03:36:20.266Z,45.40
2018-09-03T03:38:50.240Z,43.83
2018-09-03T03:41:20.738Z,36.17
2018-09-03T03:43:51.475Z,38.40
2018-09-03T03:46:21.814Z,46.27
2018-09-03T03:48:52.297Z,43.37
2018-09-03T03:51:22.255Z,51.17
2018-09-03T03:53:52.700Z,49.73
2018-09-03T03:56:23.854Z,44.40
2018-09-03T03:58:55.654Z,48.47
2018-09-03T04:01:25.781Z,50.57
2018-09-03T04:03:56.295Z,47.70
2018-09-03T04:06:27.093Z,51.00
2018-09-03T04:08:57.340Z,48.80
2018-09-03T04:11:29.287Z,52.40
2018-09-03T04:14:00.039Z,47.07
2018-09-03T04:16:31.410Z,52.00
2018-09-03T04:19:04.440Z,54.50
2018-09-03T04:21:34.560Z,48.70
2018-09-03T04:24:05.190Z,50.47
2018-09-03T04:26:36.540Z,45.83
2018-09-03T04:29:07.323Z,54.70
2018-09-03T04:31:38.753Z,53.03
2018-09-03T04:34:09.512Z,46.60
2018-09-03T04:36:40.396Z,45.10
2018-09-03T04:39:11.435Z,50.27
2018-09-03T04:41:41.681Z,48.97
2018-09-03T04:44:12.057Z,49.93
2018-09-03T04:46:41.832Z,48.67
2018-09-03T04:49:13.327Z,54.00
2018-09-03T04:51:43.471Z,51.33
2018-09-03T04:54:13.777Z,52.50
2018-09-03T04:56:44.782Z,57.90
2018-09-03T04:59:15.366Z,57.70
2018-09-03T05:01:45.595Z,54.40
2018-09-03T05:04:15.920Z,55.20
2018-09-03T05:06:46.384Z,47.70
2018-09-03T05:09:16.162Z,52.97
2018-09-03T05:11:46.278Z,53.57
2018-09-03T05:14:16.603Z,55.10
2018-09-03T05:16:46.401Z,67.70
2018-09-03T05:19:16.143Z,59.83
2018-09-03T05:21:46.116Z,50.70
2018-09-03T05:24:16.140Z,59.50
2018-09-03T05:26:46.737Z,59.37
2018-09-03T05:29:17.626Z,53.07
2018-09-03T05:31:47.913Z,58.47
2018-09-03T05:34:18.255Z,61.27
2018-09-03T05:36:49.206Z,56.03
2018-09-03T05:39:19.308Z,49.00
2018-09-03T05:41:49.411Z,47.97
2018-09-03T05:44:20.435Z,54.37
2018-09-03T05:46:50.516Z,48.40
2018-09-03T05:49:20.502Z,49.43
2018-09-03T05:51:51.082Z,50.10
2018-09-03T05:54:21.286Z,48.50
2018-09-03T05:56:51.467Z,49.90
2018-09-03T05:59:22.120Z,52.27
2018-09-03T06:01:52.157Z,47.57
2018-09-03T06:04:22.172Z,49.80
2018-09-03T06:06:52.429Z,46.13
2018-09-03T06:09:22.318Z,41.13
2018-09-03T06:11:52.079Z,41.90
2018-09-03T06:14:22.979Z,40.80
2018-09-03T06:16:52.981Z,43.40
2018-09-03T06:19:23.070Z,38.50
2018-09-03T06:21:53.377Z,38.83
2018-09-03T06:24:23.577Z,38.00
2018-09-03T06:26:54.296Z,32.50
2018-09-03T06:29:25.379Z,33.47
2018-09-03T06:31:55.577Z,35.20
2018-09-03T06:34:27.437Z,34.93
2018-09-03T06:36:57.618Z,31.07
2018-09-03T06:39:27.798Z,35.27
2018-09-03T06:41:57.963Z,26.50
2018-09-03T06:44:28.368Z,30.27
2018-09-03T06:46:58.565Z,28.10
2018-09-03T06:49:28.763Z,30.83
2018-09-03T06:52:00.039Z,26.50
2018-09-03T06:54:30.924Z,30.73
2018-09-03T06:57:01.342Z,30.77
2018-09-03T06:59:31.504Z,29.80
2018-09-03T07:02:01.296Z,32.13
2018-09-03T07:04:32.420Z,31.30
2018-09-03T07:07:03.147Z,29.37
2018-09-03T07:09:33.678Z,28.03
2018-09-03T07:12:03.837Z,30.00
2018-09-03T07:14:34.131Z,35.60
2018-09-03T07:17:04.513Z,25.30
2018-09-03T07:19:34.635Z,27.50
2018-09-03T07:22:05.793Z,32.73
2018-09-03T07:24:35.712Z,30.20
2018-09-03T07:27:05.939Z,29.17
2018-09-03T07:29:36.195Z,35.00
2018-09-03T07:32:06.695Z,33.97
2018-09-03T07:34:36.977Z,37.47
2018-09-03T07:37:07.305Z,33.47
2018-09-03T07:39:37.590Z,41.90
2018-09-03T07:42:08.087Z,42.27
2018-09-03T07:44:38.706Z,47.80
2018-09-03T07:47:08.566Z,49.13
2018-09-03T07:49:39.113Z,41.97
2018-09-03T07:52:09.221Z,55.90
2018-09-03T07:54:39.463Z,45.47
2018-09-03T07:57:09.217Z,45.60
2018-09-03T07:59:39.340Z,52.10
2018-09-03T08:02:09.379Z,47.70
2018-09-03T08:04:39.736Z,53.40
2018-09-03T08:07:09.849Z,42.87
2018-09-03T08:09:40.303Z,48.57
2018-09-03T08:12:10.131Z,48.43
2018-09-03T08:14:40.874Z,47.43
2018-09-03T08:17:10.658Z,44.87
2018-09-03T08:19:40.510Z,42.87
2018-09-03T08:22:10.539Z,46.20
2018-09-03T08:25:11.274Z,44.67
2018-09-03T08:27:41.171Z,38.30
2018-09-03T08:30:11.549Z,41.90
2018-09-03T08:32:41.346Z,44.03
2018-09-03T08:35:11.250Z,42.50
2018-09-03T08:37:42.082Z,33.80
2018-09-03T08:40:12.584Z,37.03
2018-09-03T08:42:42.867Z,34.97
2018-09-03T08:45:13.801Z,33.87
2018-09-03T08:47:44.179Z,32.90
2018-09-03T08:50:14.342Z,29.23
2018-09-03T08:52:44.482Z,29.47
2018-09-03T08:55:14.308Z,30.40
2018-09-03T08:57:44.668Z,28.37
2018-09-03T09:00:15.339Z,26.97
2018-09-03T09:02:45.093Z,26.53
2018-09-03T09:05:15.125Z,28.83
2018-09-03T09:07:45.175Z,30.70
2018-09-03T09:10:15.254Z,27.23
2018-09-03T09:12:45.198Z,31.37
2018-09-03T09:15:15.733Z,31.97
2018-09-03T09:17:45.743Z,27.50
2018-09-03T09:20:16.368Z,27.57
2018-09-03T09:22:47.046Z,26.80
2018-09-03T09:25:17.020Z,28.83
2018-09-03T09:27:47.387Z,25.97
2018-09-03T09:30:17.811Z,28.10
2018-09-03T09:32:47.708Z,29.77
2018-09-03T09:35:17.700Z,29.60
2018-09-03T09:37:48.304Z,28.17
2018-09-03T09:40:18.127Z,29.57
2018-09-03T09:42:48.325Z,29.70
2018-09-03T09:45:18.685Z,30.93
2018-09-03T09:47:48.612Z,30.13
2018-09-03T09:50:18.516Z,31.57
2018-09-03T09:52:48.730Z,30.63
2018-09-03T09:55:19.199Z,28.83
2018-09-03T09:57:49.053Z,30.77
2018-09-03T10:00:25.151Z,27.80
2018-09-03T10:02:55.207Z,27.17
2018-09-03T10:05:25.488Z,27.20
2018-09-03T10:07:55.447Z,29.40
2018-09-03T10:10:26.010Z,28.33
2018-09-03T10:12:55.849Z,31.70
2018-09-03T10:15:25.940Z,31.30
2018-09-03T10:17:56.182Z,30.93
2018-09-03T10:20:26.076Z,29.50
2018-09-03T10:22:55.985Z,32.73
2018-09-03T10:25:26.571Z,31.73
2018-09-03T10:27:56.349Z,33.63
2018-09-03T10:30:26.669Z,31.43
2018-09-03T10:32:56.532Z,31.80
2018-09-03T10:35:26.334Z,35.03
2018-09-03T10:37:57.683Z,33.97
2018-09-03T10:40:27.656Z,35.30
2018-09-03T10:42:58.065Z,36.13
2018-09-03T10:45:27.804Z,34.17
2018-09-03T10:47:57.611Z,38.13
2018-09-03T10:50:27.894Z,38.00
2018-09-03T10:52:58.859Z,41.80
2018-09-03T10:55:28.910Z,43.90
2018-09-03T10:57:58.762Z,38.50
2018-09-03T11:00:28.693Z,38.63
2018-09-03T11:02:58.694Z,38.70
2018-09-03T11:05:28.723Z,41.77
2018-09-03T11:07:58.704Z,44.13
2018-09-03T11:10:29.705Z,41.30
2018-09-03T11:12:59.896Z,48.03
2018-09-03T11:15:30.119Z,44.30
2018-09-03T11:18:01.008Z,43.90
2018-09-03T11:20:32.052Z,45.97
2018-09-03T11:23:02.905Z,44.30
2018-09-03T11:25:33.986Z,47.87
2018-09-03T11:28:04.179Z,48.63
2018-09-03T11:30:34.300Z,46.77
2018-09-03T11:33:06.475Z,48.90
2018-09-03T11:35:37.157Z,45.47
2018-09-03T11:38:07.294Z,44.73
2018-09-03T11:40:37.835Z,48.93
2018-09-03T11:43:08.171Z,43.33
2018-09-03T11:45:38.190Z,44.70
2018-09-03T11:48:08.648Z,39.00
2018-09-03T11:50:40.183Z,40.97
2018-09-03T11:53:10.681Z,37.50
2018-09-03T11:55:41.946Z,43.90
2018-09-03T11:58:12.136Z,42.73
2018-09-03T12:00:43.967Z,41.97
2018-09-03T12:03:16.643Z,36.20
2018-09-03T12:05:47.866Z,41.00
2018-09-03T12:08:18.061Z,40.10
2018-09-03T12:10:48.310Z,43.57
2018-09-03T12:13:18.626Z,43.77
2018-09-03T12:15:55.131Z,43.33
2018-09-03T12:18:25.047Z,44.47
2018-09-03T12:20:54.987Z,41.63
2018-09-03T12:23:25.170Z,42.53
2018-09-03T12:25:55.956Z,39.03
2018-09-03T12:28:26.394Z,38.53
2018-09-03T12:30:57.913Z,40.00
2018-09-03T12:33:28.426Z,42.13
2018-09-03T12:36:01.194Z,40.03
2018-09-03T12:38:31.467Z,43.00
2018-09-03T12:41:02.130Z,40.07
2018-09-03T12:43:32.248Z,40.07
2018-09-03T12:46:04.819Z,43.33
2018-09-03T12:48:37.074Z,45.93
2018-09-03T12:51:07.363Z,44.40
2018-09-03T12:53:37.505Z,40.50
2018-09-03T12:56:08.721Z,40.67
2018-09-03T12:58:39.381Z,46.03
2018-09-03T13:01:09.783Z,42.40
2018-09-03T13:03:40.053Z,42.23
2018-09-03T13:06:11.989Z,41.03
2018-09-03T13:08:43.661Z,38.13
2018-09-03T13:11:19.828Z,37.57
2018-09-03T13:13:51.993Z,38.63
2018-09-03T13:16:22.534Z,35.17
2018-09-03T13:18:52.680Z,36.40
2018-09-03T13:21:24.828Z,35.90
2018-09-03T13:23:56.615Z,36.00
2018-09-03T13:26:28.825Z,34.33
2018-09-03T13:28:58.732Z,33.57
2018-09-03T13:31:28.959Z,32.67
2018-09-03T13:33:58.972Z,34.57
2018-09-03T13:36:31.511Z,34.30
2018-09-03T13:39:01.235Z,36.80
2018-09-03T13:41:31.749Z,36.43
2018-09-03T13:44:02.058Z,37.70
2018-09-03T13:46:33.275Z,39.87
2018-09-03T13:49:04.407Z,42.10
2018-09-03T13:51:35.550Z,34.37
2018-09-03T13:54:06.471Z,41.33
2018-09-03T13:56:36.865Z,37.67
2018-09-03T13:59:07.094Z,37.03
2018-09-03T14:01:36.941Z,37.80
2018-09-03T14:04:07.040Z,33.80
2018-09-03T14:06:36.935Z,32.63
2018-09-03T14:09:09.375Z,31.50
2018-09-03T14:11:40.243Z,31.07
2018-09-03T14:14:10.392Z,25.40
2018-09-03T14:16:41.097Z,26.83
2018-09-03T14:19:11.074Z,26.90
2018-09-03T14:21:41.150Z,24.60
2018-09-03T14:24:13.917Z,25.13
2018-09-03T14:26:45.176Z,23.23
2018-09-03T14:29:16.066Z,21.90
2018-09-03T14:31:47.401Z,21.80
2018-09-03T14:34:17.957Z,20.63
2018-09-03T14:36:48.431Z,20.70
2018-09-03T14:39:27.785Z,20.17
2018-09-03T14:41:58.810Z,19.90
2018-09-03T14:44:28.941Z,19.90
2018-09-03T14:47:00.667Z,18.40
2018-09-03T14:49:32.551Z,18.67
2018-09-03T14:52:02.720Z,19.73
2018-09-03T14:54:33.072Z,19.80
2018-09-03T14:57:03.857Z,20.70
2018-09-03T14:59:34.674Z,21.03
2018-09-03T15:02:05.125Z,20.27
2018-09-03T15:04:37.353Z,21.60
2018-09-03T15:07:09.336Z,21.50
2018-09-03T15:09:42.359Z,20.70
2018-09-03T15:12:18.684Z,20.10
2018-09-03T15:14:54.592Z,20.70
2018-09-03T15:17:33.716Z,21.87
2018-09-03T15:20:09.708Z,20.53
2018-09-03T15:22:42.703Z,21.43
2018-09-03T15:25:13.772Z,21.07
2018-09-03T15:27:44.838Z,22.03
2018-09-03T15:30:26.712Z,21.27
2018-09-03T15:32:57.214Z,21.10
2018-09-03T15:35:28.077Z,23.40
2018-09-03T15:37:59.382Z,21.73
2018-09-03T15:40:31.607Z,19.63
2018-09-03T15:43:04.998Z,21.17
2018-09-03T15:45:35.401Z,23.40
2018-09-03T15:48:06.781Z,21.43
2018-09-03T15:50:37.237Z,20.60
2018-09-03T15:53:10.489Z,20.93
2018-09-03T15:55:40.709Z,22.67
2018-09-03T15:58:14.094Z,20.97
2018-09-03T16:00:44.289Z,20.43
2018-09-03T16:03:14.856Z,20.63
2018-09-03T16:05:44.846Z,21.03
2018-09-03T16:08:19.543Z,18.77
2018-09-03T16:10:50.252Z,19.30
2018-09-03T16:13:21.113Z,20.13
2018-09-03T16:15:52.747Z,23.00
2018-09-03T16:18:24.531Z,21.07
2018-09-03T16:20:55.399Z,22.20
2018-09-03T16:23:25.906Z,21.50
2018-09-03T16:25:56.670Z,21.80
2018-09-03T16:28:28.521Z,21.70
2018-09-03T16:30:59.032Z,22.23
2018-09-03T16:33:29.672Z,20.80
2018-09-03T16:36:03.092Z,23.33
2018-09-03T16:38:36.886Z,22.57
2018-09-03T16:41:07.601Z,20.87
2018-09-03T16:43:40.426Z,21.30
2018-09-03T16:46:10.261Z,20.93
2018-09-03T16:48:40.585Z,23.20
2018-09-03T16:51:17.066Z,23.00
2018-09-03T16:53:47.881Z,23.13
2018-09-03T16:56:19.897Z,27.67
2018-09-03T16:58:54.389Z,23.13
2018-09-03T17:01:26.711Z,23.53
2018-09-03T17:03:56.895Z,24.53
2018-09-03T17:06:26.808Z,23.33
2018-09-03T17:08:57.272Z,23.77
2018-09-03T17:11:28.186Z,21.87
2018-09-03T17:13:58.495Z,23.27
2018-09-03T17:16:32.873Z,24.57
2018-09-03T17:19:05.267Z,23.93
2018-09-03T17:21:35.254Z,23.30
2018-09-03T17:24:07.479Z,26.03
2018-09-03T17:26:38.512Z,24.03
2018-09-03T17:29:09.129Z,23.80
2018-09-03T17:31:40.130Z,24.90
2018-09-03T17:34:11.374Z,24.87
2018-09-03T17:36:41.897Z,24.10
2018-09-03T17:39:13.210Z,24.80
2018-09-03T17:41:43.550Z,26.43
2018-09-03T17:44:15.098Z,26.47
2018-09-03T17:46:45.403Z,23.00
2018-09-03T17:49:15.821Z,24.27
2018-09-03T17:51:46.219Z,27.20
2018-09-03T17:54:17.831Z,27.43
2018-09-03T17:56:48.785Z,26.20
2018-09-03T17:59:22.812Z,26.80
2018-09-03T18:01:53.498Z,25.50
2018-09-03T18:04:24.395Z,27.40
2018-09-03T18:06:57.725Z,27.50
2018-09-03T18:09:28.057Z,29.07
2018-09-03T18:11:57.954Z,29.20
2018-09-03T18:14:27.829Z,27.07
2018-09-03T18:16:58.258Z,29.80
2018-09-03T18:19:28.138Z,30.20
2018-09-03T18:22:00.102Z,31.10
2018-09-03T18:24:31.157Z,29.83
2018-09-03T18:27:00.959Z,30.93
2018-09-03T18:29:32.247Z,30.20
2018-09-03T18:32:02.939Z,31.10
2018-09-03T18:34:32.777Z,29.23
2018-09-03T18:37:02.794Z,30.50
2018-09-03T18:39:34.271Z,30.27
2018-09-03T18:42:05.788Z,29.80
2018-09-03T18:44:36.926Z,29.43
2018-09-03T18:47:07.682Z,31.50
2018-09-03T18:49:37.620Z,30.33
2018-09-03T18:52:07.735Z,31.87
2018-09-03T18:54:37.695Z,30.03
2018-09-03T18:57:07.893Z,30.57
2018-09-03T18:59:38.436Z,30.17
2018-09-03T19:02:09.576Z,32.30
2018-09-03T19:04:40.140Z,31.23
2018-09-03T19:07:10.389Z,34.00
2018-09-03T19:09:40.876Z,32.97
2018-09-03T19:12:10.824Z,33.27
2018-09-03T19:14:40.634Z,29.97
2018-09-03T19:17:12.501Z,31.70
2018-09-03T19:19:43.238Z,35.83
2018-09-03T19:22:14.143Z,31.80
2018-09-03T19:24:58.055Z,35.80
2018-09-03T19:27:29.603Z,32.87
2018-09-03T19:29:59.795Z,37.47
2018-09-03T19:32:39.448Z,34.80
2018-09-03T19:35:09.530Z,35.00
2018-09-03T19:37:40.365Z,40.37
2018-09-03T19:40:10.398Z,35.87
2018-09-03T19:42:40.915Z,35.10
2018-09-03T19:45:11.751Z,38.00
2018-09-03T19:47:43.055Z,37.10
2018-09-03T19:50:13.641Z,36.13
2018-09-03T19:52:43.949Z,37.40
2018-09-03T19:55:16.010Z,34.40
2018-09-03T19:57:46.765Z,34.03
2018-09-03T20:00:17.497Z,36.80
2018-09-03T20:02:50.815Z,35.90
2018-09-03T20:05:21.303Z,42.73
2018-09-03T20:07:53.494Z,37.87
2018-09-03T20:10:23.907Z,34.80
2018-09-03T20:12:56.152Z,34.97
2018-09-03T20:15:28.300Z,35.50
2018-09-03T20:17:58.878Z,34.30
2018-09-03T20:20:29.650Z,37.97
2018-09-03T20:23:00.734Z,33.60
2018-09-03T20:25:31.769Z,37.23
2018-09-03T20:28:02.469Z,41.43
2018-09-03T20:30:34.880Z,38.67
2018-09-03T20:33:05.576Z,42.30
2018-09-03T20:35:36.362Z,40.10
2018-09-03T20:38:07.201Z,37.97
2018-09-03T20:40:38.705Z,37.00
2018-09-03T20:43:09.006Z,33.87
2018-09-03T20:45:39.032Z,36.27
2018-09-03T20:48:11.900Z,41.63
2018-09-03T20:50:42.198Z,41.63
2018-09-03T20:53:13.514Z,40.63
2018-09-03T20:55:43.611Z,42.57
2018-09-03T20:58:15.344Z,41.77
2018-09-03T21:00:45.683Z,40.77
2018-09-03T21:03:16.299Z,37.13
2018-09-03T21:05:47.165Z,38.10
2018-09-03T21:08:18.958Z,39.17
2018-09-03T21:10:48.913Z,39.27
2018-09-03T21:13:19.219Z,43.27
2018-09-03T21:15:49.426Z,37.87
2018-09-03T21:18:20.175Z,41.70
2018-09-03T21:20:52.094Z,35.30
2018-09-03T21:23:23.403Z,36.63
2018-09-03T21:25:54.189Z,39.27
2018-09-03T21:28:24.386Z,38.30
2018-09-03T21:30:55.104Z,41.37
2018-09-03T21:33:26.744Z,40.53
2018-09-03T21:35:57.178Z,36.27
2018-09-03T21:38:29.889Z,39.03
2018-09-03T21:41:00.151Z,45.17
2018-09-03T21:43:31.605Z,32.87
2018-09-03T21:46:03.276Z,42.13
2018-09-03T21:48:33.920Z,35.80
2018-09-03T21:51:05.319Z,41.73
2018-09-03T21:53:35.981Z,36.40
2018-09-03T21:56:07.789Z,37.10
2018-09-03T21:58:39.329Z,40.60
2018-09-03T22:01:10.340Z,35.87
2018-09-03T22:03:42.835Z,37.53
2018-09-03T22:06:14.818Z,43.07
2018-09-03T22:08:46.151Z,38.57
2018-09-03T22:11:28.262Z,37.73
2018-09-03T22:14:00.040Z,36.70
2018-09-03T22:16:30.998Z,39.87
2018-09-03T22:19:03.507Z,39.50
2018-09-03T22:21:35.949Z,39.80
2018-09-03T22:24:06.919Z,40.60
2018-09-03T22:26:38.595Z,44.47
2018-09-03T22:29:09.506Z,41.70
2018-09-03T22:31:40.541Z,43.77
2018-09-03T22:34:12.855Z,39.67
2018-09-03T22:36:47.075Z,42.50
2018-09-03T22:39:19.012Z,43.87
2018-09-03T22:41:49.427Z,39.93
2018-09-03T22:44:20.535Z,37.53
2018-09-03T22:46:50.805Z,37.83
2018-09-03T22:49:22.409Z,38.40
2018-09-03T22:51:53.997Z,42.77
2018-09-03T22:54:25.674Z,39.97
2018-09-03T22:56:57.071Z,44.73
2018-09-03T22:59:28.650Z,39.77
2018-09-03T23:02:00.443Z,42.23
2018-09-03T23:04:31.539Z,40.87
2018-09-03T23:07:02.500Z,43.37
2018-09-03T23:09:34.188Z,43.80
2018-09-03T23:12:05.011Z,43.30
2018-09-03T23:14:35.680Z,40.67
2018-09-03T23:17:07.001Z,38.40
2018-09-03T23:19:39.130Z,31.67
2018-09-03T23:22:10.189Z,35.33
2018-09-03T23:24:42.550Z,36.37
2018-09-03T23:27:13.721Z,35.13
2018-09-03T23:29:45.354Z,35.50
2018-09-03T23:32:20.693Z,29.77
2018-09-03T23:34:53.341Z,29.00
2018-09-03T23:37:23.970Z,31.00
2018-09-03T23:39:56.270Z,33.83
2018-09-03T23:42:27.724Z,29.93
2018-09-03T23:44:58.902Z,32.37
2018-09-03T23:47:28.836Z,30.90
2018-09-03T23:49:59.128Z,28.60
2018-09-03T23:52:30.773Z,31.47
2018-09-03T23:55:00.662Z,26.00
2018-09-03T23:57:30.648Z,26.97
